Time;durP1;ratioP1;P1;durP2;ratioP2;P2;SDS_P1;SDS_P2;PMS_P1;PMS_P2;Temp;Humidity;BMP_temperature;BMP_pressure;BME280_temperature;BME280_humidity;BME280_pressure;Samples;Min_cycle;Max_cycle;Signal;HPM_P1;HPM_P2
2022/06/15 00:01:06;;;;;;;0.70;0.30;;;19.50;58.10;;;;;;5114137;28;20043;-70
2022/06/15 00:03:36;;;;;;;1.90;0.30;;;19.60;58.20;;;;;;5112678;28;20046;-70
2022/06/15 00:08:53;;;;;;;1.70;0.20;;;19.50;58.10;;;;;;5129732;27;20298;-69
2022/06/15 00:11:22;;;;;;;0.75;0.22;;;19.50;58.10;;;;;;5128364;28;20057;-70
2022/06/15 00:13:48;;;;;;;0.75;0.25;;;19.50;58.10;;;;;;5128766;28;20047;-70
2022/06/15 00:16:15;;;;;;;1.10;0.30;;;19.50;58.10;;;;;;5128803;28;20074;-70
2022/06/15 00:18:44;;;;;;;0.52;0.20;;;19.50;58.10;;;;;;5128910;28;20047;-69
2022/06/15 00:21:10;;;;;;;1.10;0.20;;;19.50;58.10;;;;;;5128724;28;20043;-70
2022/06/15 00:23:36;;;;;;;1.15;0.20;;;19.50;58.10;;;;;;5128066;28;20459;-70
2022/06/15 00:26:04;;;;;;;0.52;0.30;;;19.50;58.10;;;;;;5128574;28;20114;-70
2022/06/15 00:28:30;;;;;;;1.23;0.30;;;19.50;58.10;;;;;;5127891;28;20039;-68
2022/06/15 00:30:57;;;;;;;0.63;0.30;;;19.50;58.10;;;;;;5128246;28;20035;-70
2022/06/15 00:33:23;;;;;;;1.38;0.32;;;19.40;58.10;;;;;;5128311;28;20039;-70
2022/06/15 00:35:59;;;;;;;1.25;0.30;;;19.40;58.10;;;;;;5128052;28;20119;-70
2022/06/15 00:38:35;;;;;;;0.70;0.30;;;19.40;58.10;;;;;;5127504;28;20081;-67
2022/06/15 00:41:01;;;;;;;1.10;0.20;;;19.40;58.20;;;;;;5129097;27;20043;-69
2022/06/15 00:43:51;;;;;;;1.05;0.30;;;19.40;58.10;;;;;;5128065;28;20448;-68
2022/06/15 00:46:42;;;;;;;0.75;0.40;;;19.40;58.20;;;;;;5127734;28;20106;-70
2022/06/15 00:49:24;;;;;;;0.60;0.20;;;19.40;58.20;;;;;;5127471;28;20055;-69
2022/06/15 00:51:54;;;;;;;1.48;0.40;;;19.30;58.20;;;;;;5127813;28;20047;-70
2022/06/15 00:54:21;;;;;;;0.45;0.20;;;19.30;58.20;;;;;;5129249;27;20540;-69
2022/06/15 00:56:47;;;;;;;1.20;0.20;;;19.30;58.10;;;;;;5129671;27;20045;-70
2022/06/15 00:59:18;;;;;;;1.95;0.20;;;19.30;58.10;;;;;;5128295;28;20118;-70
2022/06/15 01:01:45;;;;;;;1.10;0.20;;;19.30;58.20;;;;;;5128069;28;20095;-70
2022/06/15 01:04:11;;;;;;;1.55;0.22;;;19.30;58.20;;;;;;5127349;28;20051;-70
2022/06/15 01:09:22;;;;;;;0.50;0.30;;;19.30;58.20;;;;;;5129830;27;20780;-70
2022/06/15 01:25:54;;;;;;;0.98;0.30;;;19.30;58.20;;;;;;5088933;28;20189;-69
2022/06/15 01:31:26;;;;;;;1.52;0.20;;;19.20;58.20;;;;;;5129865;27;20406;-71
2022/06/15 01:36:52;;;;;;;0.28;0.25;;;19.10;58.30;;;;;;5130222;27;20382;-70
2022/06/15 01:39:45;;;;;;;0.70;0.30;;;19.20;58.20;;;;;;5128965;28;20051;-70
2022/06/15 01:42:20;;;;;;;1.65;0.30;;;19.10;58.20;;;;;;5128827;28;20035;-71
2022/06/15 01:44:58;;;;;;;0.47;0.20;;;19.10;58.20;;;;;;5145225;27;20040;-69
2022/06/15 01:47:27;;;;;;;0.47;0.20;;;19.10;58.20;;;;;;5128466;28;20047;-70
2022/06/15 01:52:38;;;;;;;1.17;0.20;;;19.00;58.20;;;;;;5129782;27;20383;-70
2022/06/15 01:55:10;;;;;;;0.52;0.22;;;19.10;58.30;;;;;;5130642;27;20374;-70
2022/06/15 01:57:38;;;;;;;0.80;0.30;;;19.00;58.20;;;;;;5128442;28;20411;-69
2022/06/15 02:05:48;;;;;;;1.48;0.30;;;19.00;58.20;;;;;;5129626;27;20311;-69
2022/06/15 02:08:40;;;;;;;0.93;0.20;;;19.00;58.30;;;;;;5162956;27;20055;-69
2022/06/15 02:14:02;;;;;;;0.80;0.20;;;19.00;58.30;;;;;;5130088;27;20921;-69
2022/06/15 02:19:16;;;;;;;0.65;0.30;;;18.90;58.20;;;;;;5130379;27;20391;-70
2022/06/15 02:21:45;;;;;;;1.65;0.40;;;18.90;58.20;;;;;;5128900;28;20054;-70
2022/06/15 02:24:14;;;;;;;1.42;0.20;;;18.90;58.20;;;;;;5128300;27;20032;-69
2022/06/15 02:26:41;;;;;;;0.90;0.30;;;18.90;58.20;;;;;;5128607;28;20047;-69
2022/06/15 02:29:14;;;;;;;0.45;0.28;;;18.90;58.20;;;;;;5128430;27;20123;-69
2022/06/15 02:31:42;;;;;;;0.50;0.30;;;18.90;58.20;;;;;;5128402;27;20054;-69
2022/06/15 02:34:10;;;;;;;0.82;0.20;;;18.90;58.10;;;;;;5128551;28;20088;-70
2022/06/15 02:36:36;;;;;;;0.60;0.20;;;18.90;58.20;;;;;;5129834;27;20039;-69
2022/06/15 02:39:05;;;;;;;1.52;0.20;;;18.90;58.20;;;;;;5130137;27;20036;-69
2022/06/15 02:41:30;;;;;;;0.65;0.20;;;18.80;58.10;;;;;;5129717;27;20039;-69
2022/06/15 02:43:59;;;;;;;0.70;0.50;;;18.80;58.10;;;;;;5129518;28;20106;-70
2022/06/15 02:46:28;;;;;;;0.65;0.20;;;18.80;58.10;;;;;;5129433;27;20039;-70
2022/06/15 02:48:54;;;;;;;0.73;0.20;;;18.80;58.10;;;;;;5127845;28;20047;-69
2022/06/15 02:51:46;;;;;;;0.40;0.30;;;18.80;58.10;;;;;;5127749;28;20565;-70
2022/06/15 02:54:24;;;;;;;0.52;0.20;;;18.80;58.20;;;;;;5129225;27;20043;-69
2022/06/15 02:56:51;;;;;;;0.65;0.20;;;18.80;58.10;;;;;;5129637;27;20047;-70
2022/06/15 02:59:17;;;;;;;0.45;0.20;;;18.80;58.20;;;;;;5128471;28;20043;-69
2022/06/15 03:01:43;;;;;;;0.52;0.20;;;18.80;58.10;;;;;;5128364;28;20127;-69
2022/06/15 03:04:12;;;;;;;0.40;0.30;;;18.80;58.10;;;;;;5127616;28;20038;-70
2022/06/15 03:06:38;;;;;;;0.47;0.20;;;18.80;58.10;;;;;;5127533;28;20114;-70
2022/06/15 03:09:04;;;;;;;0.50;0.20;;;18.70;58.10;;;;;;5128951;28;20122;-70
2022/06/15 03:11:29;;;;;;;1.20;0.20;;;18.70;58.00;;;;;;5128969;28;20093;-71
2022/06/15 03:13:55;;;;;;;0.75;0.20;;;18.70;58.00;;;;;;5129204;28;20046;-70
2022/06/15 03:16:21;;;;;;;0.38;0.20;;;18.70;58.00;;;;;;5128195;28;20067;-69
2022/06/15 03:18:47;;;;;;;0.55;0.20;;;18.70;58.00;;;;;;5127545;28;20057;-70
2022/06/15 03:21:13;;;;;;;0.68;0.20;;;18.70;58.00;;;;;;5129197;28;20046;-69
2022/06/15 03:23:39;;;;;;;0.98;0.40;;;18.70;58.10;;;;;;5128753;27;20027;-69
2022/06/15 03:26:05;;;;;;;1.05;0.20;;;18.70;58.10;;;;;;5127382;28;20075;-69
2022/06/15 03:28:34;;;;;;;0.60;0.40;;;18.70;58.00;;;;;;5126089;28;20070;-69
2022/06/15 03:31:00;;;;;;;1.08;0.22;;;18.60;57.90;;;;;;5113282;28;20074;-69
2022/06/15 03:33:26;;;;;;;0.57;0.30;;;18.60;58.00;;;;;;5113365;28;20535;-70
2022/06/15 03:35:52;;;;;;;0.55;0.22;;;18.60;58.00;;;;;;5115414;28;20122;-70
2022/06/15 03:38:18;;;;;;;0.63;0.20;;;18.60;58.00;;;;;;5113568;28;20398;-69
2022/06/15 03:40:46;;;;;;;0.57;0.40;;;18.60;57.90;;;;;;5113704;28;20114;-69
2022/06/15 03:43:13;;;;;;;1.17;0.20;;;18.60;58.00;;;;;;5114864;28;20027;-69
2022/06/15 03:45:39;;;;;;;0.73;0.20;;;18.60;58.00;;;;;;5112894;28;20084;-69
2022/06/15 03:48:05;;;;;;;1.35;0.50;;;18.60;58.00;;;;;;5113716;28;20054;-70
2022/06/15 03:50:33;;;;;;;0.52;0.28;;;18.60;58.00;;;;;;5113943;28;20039;-69
2022/06/15 03:53:00;;;;;;;0.95;0.40;;;18.60;58.00;;;;;;5112991;28;20522;-69
2022/06/15 03:55:28;;;;;;;0.82;0.30;;;18.60;58.00;;;;;;5114825;28;20039;-69
2022/06/15 03:57:54;;;;;;;0.50;0.20;;;18.60;58.00;;;;;;5113293;28;20475;-70
2022/06/15 04:00:21;;;;;;;1.10;0.43;;;18.60;58.00;;;;;;5114601;28;20035;-70
2022/06/15 04:02:47;;;;;;;0.52;0.20;;;18.60;58.00;;;;;;5113308;28;20055;-71
2022/06/15 04:05:19;;;;;;;0.60;0.30;;;18.60;58.00;;;;;;5113697;28;20050;-70
2022/06/15 04:10:30;;;;;;;1.58;0.43;;;18.50;58.00;;;;;;5112299;28;20126;-70
2022/06/15 04:12:56;;;;;;;0.40;0.28;;;18.60;58.10;;;;;;5113911;28;20122;-70
2022/06/15 04:15:22;;;;;;;1.60;0.30;;;18.50;58.00;;;;;;5114474;28;20040;-70
2022/06/15 04:17:47;;;;;;;0.65;0.40;;;18.60;58.10;;;;;;5112744;28;20052;-70
2022/06/15 04:20:31;;;;;;;0.50;0.20;;;18.60;58.10;;;;;;5113145;28;20140;-71
2022/06/15 04:23:06;;;;;;;0.80;0.30;;;18.50;58.00;;;;;;5113231;28;20085;-71
2022/06/15 04:25:42;;;;;;;0.98;0.40;;;18.50;58.10;;;;;;5112239;28;20043;-70
2022/06/15 04:28:09;;;;;;;1.05;0.30;;;18.60;58.10;;;;;;5113805;28;20044;-71
2022/06/15 04:30:35;;;;;;;0.75;0.30;;;18.50;58.00;;;;;;5113468;28;20503;-71
2022/06/15 04:33:01;;;;;;;1.02;0.40;;;18.60;58.10;;;;;;5113730;28;20092;-72
2022/06/15 04:35:27;;;;;;;0.90;0.30;;;18.50;58.00;;;;;;5114014;28;20039;-70
2022/06/15 04:37:54;;;;;;;1.95;0.40;;;18.50;58.10;;;;;;5113926;28;20115;-70
2022/06/15 04:40:19;;;;;;;0.90;0.30;;;18.60;58.10;;;;;;5112040;28;20039;-70
2022/06/15 04:42:45;;;;;;;1.00;0.30;;;18.50;58.10;;;;;;5112047;28;20035;-70
2022/06/15 04:45:14;;;;;;;0.57;0.30;;;18.60;58.10;;;;;;5112126;28;20046;-71
2022/06/15 04:47:40;;;;;;;0.80;0.30;;;18.60;58.20;;;;;;5112251;28;20048;-69
2022/06/15 04:50:07;;;;;;;0.80;0.30;;;18.60;58.20;;;;;;5112080;28;20131;-69
2022/06/15 04:52:33;;;;;;;0.77;0.30;;;18.50;58.10;;;;;;5111763;28;20040;-70
2022/06/15 04:54:59;;;;;;;1.02;0.50;;;18.50;58.20;;;;;;5111722;28;20104;-71
2022/06/15 04:57:25;;;;;;;1.48;0.32;;;18.50;58.20;;;;;;5112051;28;20620;-70
2022/06/15 04:59:51;;;;;;;0.70;0.30;;;18.50;58.20;;;;;;5113819;28;20425;-70
2022/06/15 05:02:16;;;;;;;0.82;0.20;;;18.60;58.30;;;;;;5113213;28;20071;-70
2022/06/15 05:04:42;;;;;;;0.88;0.50;;;18.60;58.20;;;;;;5113348;28;20475;-70
2022/06/15 05:07:08;;;;;;;1.00;0.30;;;18.60;58.30;;;;;;5111587;28;20371;-70
2022/06/15 05:09:34;;;;;;;0.77;0.30;;;18.60;58.20;;;;;;5112958;28;20081;-70
2022/06/15 05:12:00;;;;;;;1.63;0.40;;;18.60;58.20;;;;;;5111437;28;20035;-69
2022/06/15 05:14:26;;;;;;;0.70;0.30;;;18.60;58.20;;;;;;5111432;28;20136;-70
2022/06/15 05:16:52;;;;;;;0.60;0.30;;;18.60;58.30;;;;;;5111450;28;20035;-69
2022/06/15 05:19:18;;;;;;;0.93;0.35;;;18.60;58.20;;;;;;5111880;28;20043;-71
2022/06/15 05:21:45;;;;;;;1.25;0.40;;;18.60;58.30;;;;;;5111695;28;20046;-70
2022/06/15 05:24:11;;;;;;;1.90;0.45;;;18.60;58.30;;;;;;5111932;28;20081;-70
2022/06/15 05:26:38;;;;;;;0.70;0.30;;;18.60;58.30;;;;;;5112203;28;20043;-70
2022/06/15 05:29:04;;;;;;;1.13;0.22;;;18.60;58.30;;;;;;5112505;28;20061;-71
2022/06/15 05:31:30;;;;;;;0.75;0.30;;;18.60;58.30;;;;;;5112255;28;20421;-70
2022/06/15 05:33:57;;;;;;;0.88;0.40;;;18.60;58.30;;;;;;5110970;28;20122;-72
2022/06/15 05:36:29;;;;;;;0.30;0.20;;;18.70;58.40;;;;;;5112123;28;20115;-69
2022/06/15 05:38:55;;;;;;;0.45;0.30;;;18.70;58.30;;;;;;5111355;28;20035;-70
2022/06/15 05:41:21;;;;;;;1.08;0.30;;;18.70;58.20;;;;;;5109871;28;20053;-70
2022/06/15 05:43:48;;;;;;;2.28;0.30;;;18.70;58.10;;;;;;5107665;28;20036;-74
2022/06/15 05:46:32;;;;;;;1.08;0.30;;;18.60;58.40;;;;;;5107706;28;20035;-69
2022/06/15 05:49:00;;;;;;;1.50;0.40;;;18.70;58.90;;;;;;5106735;28;20043;-72
2022/06/15 05:51:26;;;;;;;1.10;0.32;;;18.80;59.30;;;;;;5107675;28;20047;-70
2022/06/15 05:53:52;;;;;;;0.80;0.20;;;18.80;59.40;;;;;;5105518;28;20044;-70
2022/06/15 05:56:18;;;;;;;0.70;0.20;;;18.90;59.20;;;;;;5105843;28;20103;-66
2022/06/15 05:58:44;;;;;;;1.10;0.10;;;18.90;59.10;;;;;;5106223;28;20494;-70
2022/06/15 06:01:17;;;;;;;1.00;0.10;;;18.90;59.00;;;;;;5104107;28;20048;-70
2022/06/15 06:03:42;;;;;;;0.52;0.15;;;19.00;58.90;;;;;;5092456;27;20039;-71
2022/06/15 06:06:10;;;;;;;0.70;0.20;;;19.00;58.80;;;;;;5093369;28;20744;-68
2022/06/15 06:08:36;;;;;;;1.85;0.20;;;19.00;58.80;;;;;;5094871;28;20774;-70
2022/06/15 06:11:01;;;;;;;2.60;0.20;;;19.00;58.70;;;;;;5101471;27;20032;-68
2022/06/15 06:13:28;;;;;;;5.07;0.20;;;19.00;58.90;;;;;;5089521;28;20081;-70
2022/06/15 06:15:55;;;;;;;2.20;0.30;;;19.00;59.30;;;;;;5090721;28;20063;-69
2022/06/15 06:18:22;;;;;;;1.15;0.20;;;19.10;58.90;;;;;;5070132;28;20040;-71
2022/06/15 06:20:48;;;;;;;5.00;0.40;;;19.10;59.30;;;;;;5086478;28;20104;-69
2022/06/15 06:23:14;;;;;;;1.42;0.40;;;19.10;59.50;;;;;;5078966;28;20039;-72
2022/06/15 06:25:42;;;;;;;2.58;0.35;;;19.20;59.40;;;;;;5086130;28;20044;-71
2022/06/15 06:28:22;;;;;;;2.83;0.63;;;19.20;59.30;;;;;;5101371;28;20064;-71
2022/06/15 06:30:48;;;;;;;2.22;0.93;;;19.20;59.30;;;;;;5091259;28;20078;-71
2022/06/15 06:33:13;;;;;;;3.80;0.93;;;19.20;59.30;;;;;;5105776;27;20051;-68
2022/06/15 06:35:39;;;;;;;2.50;0.75;;;19.20;59.30;;;;;;5086231;28;20121;-69
2022/06/15 06:38:05;;;;;;;2.92;0.50;;;19.30;59.70;;;;;;5086732;28;20044;-72
2022/06/15 06:40:30;;;;;;;1.90;0.40;;;19.30;59.70;;;;;;5091624;28;20066;-70
2022/06/15 06:42:56;;;;;;;2.05;0.63;;;19.30;59.60;;;;;;5087885;28;20044;-69
2022/06/15 06:45:21;;;;;;;3.83;0.52;;;19.30;59.60;;;;;;5092976;28;20559;-69
2022/06/15 06:47:48;;;;;;;2.00;0.50;;;19.40;59.60;;;;;;5091039;28;20418;-70
2022/06/15 06:50:14;;;;;;;1.73;0.60;;;19.40;59.50;;;;;;5085072;28;20051;-71
2022/06/15 06:52:43;;;;;;;2.00;0.50;;;19.40;59.40;;;;;;5089546;28;20036;-71
2022/06/15 06:55:09;;;;;;;4.05;0.50;;;19.30;59.30;;;;;;5097209;28;20059;-69
2022/06/15 06:57:38;;;;;;;3.40;0.63;;;19.40;59.60;;;;;;5106940;28;20052;-69
2022/06/15 07:00:04;;;;;;;2.33;0.45;;;19.50;59.50;;;;;;5087719;28;20036;-69
2022/06/15 07:02:30;;;;;;;3.70;0.40;;;19.50;59.40;;;;;;5087962;28;20127;-68
2022/06/15 07:04:55;;;;;;;4.53;0.50;;;19.50;59.30;;;;;;5100224;27;20077;-68
2022/06/15 07:07:21;;;;;;;2.53;0.50;;;19.50;59.10;;;;;;5102943;27;20080;-67
2022/06/15 07:09:47;;;;;;;4.70;0.88;;;19.50;59.30;;;;;;5088431;27;21534;-72
2022/06/15 07:12:13;;;;;;;3.92;0.65;;;19.50;59.70;;;;;;5103802;27;20066;-71
2022/06/15 07:14:50;;;;;;;4.22;0.73;;;19.60;60.10;;;;;;5090006;27;20074;-74
2022/06/15 07:17:17;;;;;;;2.28;0.40;;;19.60;60.40;;;;;;5097255;27;20066;-71
2022/06/15 07:19:43;;;;;;;3.40;0.55;;;19.70;60.60;;;;;;5094090;27;20049;-70
2022/06/15 07:22:08;;;;;;;2.35;0.40;;;19.70;60.70;;;;;;5089763;27;20850;-72
2022/06/15 07:24:34;;;;;;;1.00;0.80;;;19.60;60.60;;;;;;5089768;27;20122;-69
2022/06/15 07:27:00;;;;;;;3.30;0.50;;;19.70;60.60;;;;;;5086083;27;20109;-69
2022/06/15 07:29:26;;;;;;;3.08;0.50;;;19.70;60.70;;;;;;5090394;27;20075;-69
2022/06/15 07:31:55;;;;;;;2.47;0.50;;;19.70;60.80;;;;;;5092602;27;20538;-71
2022/06/15 07:34:22;;;;;;;4.60;0.60;;;19.80;60.70;;;;;;5086470;27;20136;-69
2022/06/15 07:36:48;;;;;;;13.25;1.65;;;19.80;60.80;;;;;;5096006;28;20288;-67
2022/06/15 07:39:18;;;;;;;4.03;0.40;;;19.80;60.90;;;;;;5091309;28;20127;-69
2022/06/15 07:41:45;;;;;;;2.00;0.60;;;19.80;60.80;;;;;;5105962;27;20035;-69
2022/06/15 07:44:11;;;;;;;1.80;0.60;;;19.80;60.80;;;;;;5106693;27;20111;-67
2022/06/15 07:46:37;;;;;;;2.42;0.45;;;19.80;60.70;;;;;;5108241;27;20103;-68
2022/06/15 07:51:53;;;;;;;2.45;0.80;;;19.80;60.60;;;;;;5093012;28;20048;-69
2022/06/15 07:54:19;;;;;;;2.17;0.70;;;19.90;60.80;;;;;;5090774;27;20051;-68
2022/06/15 07:56:46;;;;;;;4.25;0.50;;;19.90;60.60;;;;;;5091596;27;20036;-68
2022/06/15 07:59:13;;;;;;;4.18;0.85;;;19.90;60.70;;;;;;5103707;27;20044;-69
2022/06/15 08:01:40;;;;;;;4.03;1.38;;;19.90;60.60;;;;;;5090839;27;21077;-70
2022/06/15 08:04:07;;;;;;;3.30;0.70;;;19.90;60.60;;;;;;5090740;28;20038;-70
2022/06/15 08:06:35;;;;;;;8.63;0.90;;;19.90;60.70;;;;;;5090924;28;20043;-69
2022/06/15 08:09:01;;;;;;;3.03;0.50;;;20.00;60.70;;;;;;5093113;27;20126;-69
2022/06/15 08:11:27;;;;;;;3.53;0.57;;;20.00;60.70;;;;;;5093429;28;20067;-69
2022/06/15 08:13:55;;;;;;;2.00;0.50;;;20.00;60.60;;;;;;5095142;27;20085;-68
2022/06/15 08:16:21;;;;;;;4.72;0.32;;;20.10;60.50;;;;;;5090275;28;20061;-71
2022/06/15 08:18:52;;;;;;;6.03;0.47;;;20.10;60.20;;;;;;5091362;28;20054;-70
2022/06/15 08:21:30;;;;;;;4.00;0.47;;;20.10;60.30;;;;;;5105720;27;20522;-70
2022/06/15 08:23:58;;;;;;;3.97;0.50;;;20.20;60.60;;;;;;5089514;27;20051;-71
2022/06/15 08:26:34;;;;;;;3.28;0.63;;;20.30;60.30;;;;;;5093203;28;20066;-72
2022/06/15 08:29:04;;;;;;;3.20;0.40;;;20.30;60.00;;;;;;5096616;28;20052;-72
2022/06/15 08:31:30;;;;;;;5.15;0.80;;;20.30;59.70;;;;;;5094033;27;20115;-71
2022/06/15 08:33:56;;;;;;;2.70;0.40;;;20.40;59.40;;;;;;5091581;28;20126;-70
2022/06/15 08:36:21;;;;;;;5.55;0.43;;;20.50;59.20;;;;;;5107823;27;20047;-71
2022/06/15 08:38:47;;;;;;;5.82;0.60;;;20.50;58.70;;;;;;5090067;27;20040;-70
2022/06/15 08:41:40;;;;;;;2.45;0.30;;;20.60;58.40;;;;;;5092166;28;20040;-71
2022/06/15 08:49:44;;;;;;;3.92;1.20;;;20.90;57.10;;;;;;5092897;27;1167710;-71
2022/06/15 08:52:40;;;;;;;5.05;0.60;;;21.10;56.90;;;;;;5090709;28;20050;-70
2022/06/15 08:57:53;;;;;;;4.35;0.55;;;21.20;56.40;;;;;;5099218;27;20479;-68
2022/06/15 09:00:24;;;;;;;5.68;0.50;;;21.50;55.60;;;;;;5084732;28;20048;-69
2022/06/15 09:02:57;;;;;;;;;;;21.70;55.00;;;;;;5076600;28;20047;-70
2022/06/15 09:05:35;;;;;;;1.27;0.45;;;21.90;54.70;;;;;;5081234;28;20107;-65
2022/06/15 09:17:06;;;;;;;3.47;0.50;;;22.50;52.90;;;;;;5101662;27;20481;-71
2022/06/15 09:19:42;;;;;;;2.42;0.47;;;22.60;52.70;;;;;;5130404;27;20039;-72
2022/06/15 09:22:11;;;;;;;3.50;0.95;;;22.70;52.40;;;;;;5115067;27;20510;-72
2022/06/15 09:27:23;;;;;;;1.75;0.45;;;22.80;52.20;;;;;;5114663;27;1167302;-73
2022/06/15 09:29:56;;;;;;;3.95;1.17;;;22.90;52.00;;;;;;5135235;27;20061;-72
2022/06/15 09:32:35;;;;;;;1.33;0.40;;;22.90;51.80;;;;;;5133123;27;20091;-69
2022/06/15 09:35:16;;;;;;;2.17;0.40;;;22.90;51.80;;;;;;5132958;27;20035;-70
2022/06/15 09:37:46;;;;;;;2.08;0.40;;;22.90;51.80;;;;;;5130060;27;20034;-69
2022/06/15 09:40:12;;;;;;;2.80;0.50;;;23.00;51.70;;;;;;5133963;27;20050;-71
2022/06/15 09:56:16;;;;;;;1.85;0.40;;;23.20;51.30;;;;;;5052676;28;20408;-68
2022/06/15 10:01:32;;;;;;;3.00;0.37;;;23.20;50.00;;;;;;5090595;27;1878457;-68
2022/06/15 10:04:04;;;;;;;2.25;0.20;;;23.20;49.70;;;;;;5109646;27;20051;-67
2022/06/15 10:06:52;;;;;;;4.40;0.35;;;23.20;49.70;;;;;;5130946;27;20569;-68
2022/06/15 10:09:23;;;;;;;4.15;0.55;;;23.20;49.80;;;;;;5113286;27;20607;-67
2022/06/15 10:11:53;;;;;;;4.80;0.55;;;23.30;49.80;;;;;;5109448;27;20091;-68
2022/06/15 10:14:28;;;;;;;1.38;0.20;;;23.30;49.90;;;;;;5106503;27;20042;-69
2022/06/15 10:16:59;;;;;;;5.53;0.55;;;23.30;50.10;;;;;;5126525;27;20039;-69
2022/06/15 10:19:27;;;;;;;4.20;0.40;;;23.30;50.10;;;;;;5109522;27;20048;-69
2022/06/15 10:21:56;;;;;;;6.53;0.45;;;23.40;50.30;;;;;;5113582;27;20043;-70
2022/06/15 10:33:14;;;;;;;3.28;0.32;;;23.40;50.30;;;;;;5122154;27;20755;-69
2022/06/15 10:35:40;;;;;;;0.70;0.25;;;23.40;50.20;;;;;;5099698;28;20490;-69
2022/06/15 10:38:15;;;;;;;2.75;0.30;;;23.30;50.00;;;;;;5101838;28;20116;-69
2022/06/15 10:40:54;;;;;;;2.42;0.35;;;23.30;50.10;;;;;;5093193;28;20040;-70
2022/06/15 10:43:35;;;;;;;4.20;0.60;;;23.30;50.30;;;;;;5102587;28;20069;-73
2022/06/15 10:46:07;;;;;;;3.38;0.30;;;23.20;50.20;;;;;;5087657;28;20031;-72
2022/06/15 10:48:54;;;;;;;3.58;0.77;;;23.20;50.20;;;;;;5099675;28;20027;-73
2022/06/15 10:51:38;;;;;;;2.13;0.38;;;23.20;50.20;;;;;;5104540;28;20040;-72
2022/06/15 11:03:21;;;;;;;1.73;0.30;;;23.10;49.50;;;;;;5141202;27;20107;-70
2022/06/15 11:05:50;;;;;;;5.68;0.73;;;23.10;49.30;;;;;;5155928;27;20441;-71
2022/06/15 11:08:26;;;;;;;4.32;0.30;;;23.10;49.50;;;;;;5137463;27;20058;-70
2022/06/15 11:11:11;;;;;;;1.35;0.17;;;23.10;49.60;;;;;;5147233;27;20031;-70
2022/06/15 11:13:41;;;;;;;2.28;0.40;;;23.10;49.70;;;;;;5148333;27;20145;-71
2022/06/15 11:19:09;;;;;;;4.35;0.35;;;23.10;49.70;;;;;;5100740;27;20388;-68
2022/06/15 11:21:42;;;;;;;1.27;0.30;;;23.10;49.50;;;;;;5101583;28;20039;-71
2022/06/15 11:27:24;;;;;;;2.33;0.30;;;23.10;49.50;;;;;;5101166;27;20931;-74
2022/06/15 11:30:12;;;;;;;0.80;0.57;;;23.10;49.50;;;;;;5064506;28;20082;-74
2022/06/15 11:33:12;;;;;;;1.75;0.30;;;23.10;49.50;;;;;;5065048;28;20041;-69
2022/06/15 11:35:44;;;;;;;14.30;6.47;;;23.20;49.50;;;;;;5079473;28;20043;-72
2022/06/15 11:40:54;;;;;;;20.88;8.45;;;23.10;49.50;;;;;;5123952;27;20454;-72
2022/06/15 11:43:33;;;;;;;17.50;6.80;;;23.10;49.70;;;;;;5123995;28;20137;-75
2022/06/15 11:46:39;;;;;;;10.88;3.67;;;23.00;49.80;;;;;;5120629;28;20116;-74
2022/06/15 11:49:19;;;;;;;8.85;2.75;;;23.00;50.00;;;;;;5121407;28;20035;-69
2022/06/15 11:52:13;;;;;;;7.20;1.73;;;23.00;50.00;;;;;;5120105;28;20114;-71
2022/06/15 11:58:06;;;;;;;3.28;0.95;;;22.90;50.10;;;;;;5145869;27;1164240;-71
2022/06/15 12:00:38;;;;;;;2.13;0.60;;;23.00;50.10;;;;;;5136691;27;20043;-71
2022/06/15 12:03:31;;;;;;;2.58;1.05;;;23.00;50.00;;;;;;5150062;27;20086;-71
2022/06/15 12:06:22;;;;;;;1.20;0.30;;;23.10;50.00;;;;;;5146306;27;20035;-72
2022/06/15 12:09:03;;;;;;;1.02;0.30;;;23.10;49.90;;;;;;5146238;27;20038;-71
2022/06/15 12:17:40;;;;;;;1.42;0.40;;;23.10;49.80;;;;;;5126231;27;20349;-69
2022/06/15 12:20:34;;;;;;;0.50;0.30;;;23.10;49.70;;;;;;5125553;28;20520;-71
2022/06/15 12:23:20;;;;;;;1.05;0.30;;;23.10;49.70;;;;;;5125133;28;20043;-72
2022/06/15 12:31:45;;;;;;;3.20;0.70;;;23.20;49.70;;;;;;5132116;27;1158913;-73
2022/06/15 12:34:33;;;;;;;2.65;0.30;;;23.20;49.90;;;;;;5149817;27;20049;-74
2022/06/15 12:37:09;;;;;;;1.30;0.20;;;23.30;50.00;;;;;;5134386;27;20457;-70
2022/06/15 12:39:48;;;;;;;3.97;0.40;;;23.30;49.80;;;;;;5149573;27;20092;-73
2022/06/15 12:42:17;;;;;;;3.00;0.30;;;23.30;49.70;;;;;;5149354;27;20061;-72
2022/06/15 12:47:26;;;;;;;1.95;0.25;;;23.30;49.80;;;;;;5086198;27;20385;-70
2022/06/15 12:52:59;;;;;;;3.22;0.30;;;23.40;49.70;;;;;;5126721;27;20411;-71
2022/06/15 12:58:49;;;;;;;2.30;0.30;;;23.40;49.70;;;;;;5126823;27;20391;-70
2022/06/15 13:01:17;;;;;;;;;;;23.30;50.00;;;;;;5106895;28;20089;-71
2022/06/15 13:04:22;;;;;;;1.00;0.20;;;23.30;50.30;;;;;;5124055;27;20001;-70
2022/06/15 13:07:15;;;;;;;2.15;0.22;;;23.30;50.50;;;;;;5106131;28;20467;-69
2022/06/15 13:09:41;;;;;;;1.85;0.65;;;23.30;50.80;;;;;;5105559;28;20043;-70
2022/06/15 13:12:09;;;;;;;2.50;0.30;;;23.30;50.90;;;;;;5106867;28;20043;-67
2022/06/15 13:17:22;;;;;;;2.33;0.30;;;23.30;51.20;;;;;;5087727;28;20421;-69
2022/06/15 13:19:51;;;;;;;1.48;0.25;;;23.30;51.30;;;;;;5083195;28;20041;-68
2022/06/15 13:22:28;;;;;;;0.60;0.20;;;23.30;51.40;;;;;;5086740;28;20094;-69
2022/06/15 13:25:09;;;;;;;2.20;0.40;;;23.30;51.50;;;;;;5087680;28;20040;-69
2022/06/15 13:27:40;;;;;;;1.65;0.32;;;23.30;51.70;;;;;;5085655;28;20043;-69
2022/06/15 13:33:05;;;;;;;3.95;0.30;;;23.30;52.00;;;;;;5087771;27;20364;-70
2022/06/15 13:35:37;;;;;;;1.25;0.30;;;23.40;52.00;;;;;;5087231;28;20121;-69
2022/06/15 13:51:55;;;;;;;2.60;0.30;;;23.40;52.10;;;;;;5087480;27;20417;-69
2022/06/15 14:00:37;;;;;;;1.48;0.20;;;23.50;52.70;;;;;;5077657;28;20433;-71
2022/06/15 14:06:13;;;;;;;2.53;0.38;;;23.60;52.50;;;;;;5087435;28;20451;-70
2022/06/15 14:09:11;;;;;;;1.73;0.30;;;23.50;52.50;;;;;;5085780;28;20062;-69
2022/06/15 14:12:03;;;;;;;5.50;0.40;;;23.60;52.60;;;;;;5078269;28;20531;-70
2022/06/15 14:19:59;;;;;;;5.63;0.40;;;23.60;52.70;;;;;;5107130;27;20151;-74
2022/06/15 14:22:28;;;;;;;0.77;0.30;;;23.70;53.00;;;;;;5089955;28;20052;-72
2022/06/15 14:25:04;;;;;;;0.90;0.10;;;23.70;52.60;;;;;;5089577;28;20071;-71
2022/06/15 14:27:36;;;;;;;2.60;0.38;;;23.70;51.90;;;;;;5088958;28;20039;-70
2022/06/15 14:30:06;;;;;;;8.48;0.40;;;23.70;51.30;;;;;;5086830;28;20047;-75
2022/06/15 14:35:20;;;;;;;0.93;0.20;;;23.80;51.70;;;;;;5146895;27;1175466;-71
2022/06/15 14:37:50;;;;;;;0.88;0.10;;;23.90;50.50;;;;;;5151276;27;20034;-72
2022/06/15 14:40:38;;;;;;;30.30;0.95;;;23.90;50.10;;;;;;5150354;27;20069;-72
2022/06/15 14:43:06;;;;;;;2.30;0.10;;;24.00;50.00;;;;;;5145753;27;20094;-70
2022/06/15 14:45:37;;;;;;;5.03;0.10;;;24.00;49.70;;;;;;5131242;27;20035;-71
2022/06/15 14:48:06;;;;;;;2.75;0.20;;;23.90;49.60;;;;;;5130007;27;20035;-70
2022/06/15 14:50:35;;;;;;;3.03;0.40;;;23.80;49.70;;;;;;5130056;27;20073;-70
2022/06/15 14:53:13;;;;;;;2.97;0.40;;;23.70;49.80;;;;;;5148717;27;20062;-70
2022/06/15 14:55:39;;;;;;;1.33;0.20;;;23.70;50.10;;;;;;5149472;27;20039;-70
2022/06/15 14:58:19;;;;;;;2.70;0.20;;;23.60;50.30;;;;;;5149469;27;20478;-71
2022/06/15 15:00:46;;;;;;;1.50;0.30;;;23.50;50.30;;;;;;5130408;27;20498;-68
2022/06/15 15:03:29;;;;;;;0.82;0.20;;;23.50;50.60;;;;;;5130727;27;20045;-71
2022/06/15 15:05:55;;;;;;;0.75;0.17;;;23.50;50.70;;;;;;5149062;27;20035;-71
2022/06/15 15:11:25;;;;;;;1.38;0.20;;;23.40;50.80;;;;;;5148899;27;20103;-70
2022/06/15 15:17:09;;;;;;;1.63;0.68;;;23.30;51.20;;;;;;5128727;27;20743;-70
2022/06/15 15:19:41;;;;;;;1.15;0.20;;;23.20;51.20;;;;;;5127480;27;20406;-70
2022/06/15 15:25:03;;;;;;;1.20;0.20;;;23.20;51.30;;;;;;5149899;27;20126;-71
2022/06/15 15:39:09;;;;;;;0.55;0.13;;;23.10;51.60;;;;;;5106889;28;20053;-70
2022/06/15 15:41:41;;;;;;;0.82;0.30;;;23.10;51.70;;;;;;5108173;28;20046;-70
2022/06/15 15:44:07;;;;;;;0.52;0.20;;;23.10;51.80;;;;;;5118455;28;20047;-69
2022/06/15 15:46:34;;;;;;;1.90;0.20;;;23.10;51.90;;;;;;5127047;28;20036;-70
2022/06/15 15:49:00;;;;;;;2.20;0.15;;;23.10;51.90;;;;;;5127793;27;20035;-70
2022/06/15 15:51:29;;;;;;;0.73;0.20;;;23.10;52.00;;;;;;5126837;28;20043;-70
2022/06/15 15:53:55;;;;;;;1.17;0.20;;;23.00;51.90;;;;;;5126558;28;20486;-70
2022/06/15 15:56:20;;;;;;;0.75;0.20;;;23.10;52.00;;;;;;5128430;28;20076;-70
2022/06/15 15:58:48;;;;;;;1.02;0.20;;;23.00;52.00;;;;;;5127397;28;20030;-71
2022/06/15 16:01:14;;;;;;;0.57;0.20;;;23.00;52.10;;;;;;5128152;27;20420;-69
2022/06/15 16:03:40;;;;;;;1.38;0.20;;;23.00;52.10;;;;;;5128096;27;20428;-71
2022/06/15 16:06:07;;;;;;;1.75;0.20;;;23.00;52.10;;;;;;5127179;28;20050;-70
2022/06/15 16:08:32;;;;;;;0.85;0.20;;;23.00;52.20;;;;;;5126226;28;20050;-70
2022/06/15 16:10:58;;;;;;;0.63;0.10;;;23.00;52.20;;;;;;5106323;28;20040;-70
2022/06/15 16:13:25;;;;;;;0.40;0.20;;;23.00;52.20;;;;;;5117175;28;20044;-70
2022/06/15 16:15:54;;;;;;;0.98;0.20;;;23.00;52.30;;;;;;5107615;28;20081;-69